createdAt,value
2023-03-04T00:00:48.012Z,94.91
2023-03-04T00:03:16.652Z,95.13
2023-03-04T00:05:45.366Z,94.92
2023-03-04T00:08:13.135Z,95.57
2023-03-04T00:10:40.675Z,95.95
2023-03-04T00:13:27.543Z,95.49
2023-03-04T00:15:54.896Z,96.91
2023-03-04T00:18:22.462Z,96.56
2023-03-04T00:20:50.648Z,96.23
2023-03-04T00:23:18.462Z,96.41
2023-03-04T00:25:48.864Z,98.65
2023-03-04T00:28:17.993Z,97.71
2023-03-04T00:30:46.117Z,97.01
2023-03-04T00:33:14.362Z,97.81
2023-03-04T00:35:42.192Z,97.31
2023-03-04T00:38:10.413Z,97.17
2023-03-04T00:40:37.998Z,97.29
2023-03-04T00:43:06.124Z,96.58
2023-03-04T00:45:33.920Z,97.86
2023-03-04T00:48:06.047Z,97.78
2023-03-04T00:50:35.214Z,97.73
2023-03-04T00:53:02.609Z,99.14
2023-03-04T00:55:32.350Z,97.44
2023-03-04T00:57:59.736Z,98.27
2023-03-04T01:00:27.273Z,98.78
2023-03-04T01:02:55.312Z,98.02
2023-03-04T01:05:24.269Z,97.75
2023-03-04T01:07:51.712Z,98.12
2023-03-04T01:10:25.646Z,98.09
2023-03-04T01:12:53.639Z,97.74
2023-03-04T01:15:21.112Z,98.27
2023-03-04T01:17:50.834Z,98.29
2023-03-04T01:20:19.247Z,99.35
2023-03-04T01:22:46.720Z,99.94
2023-03-04T01:25:14.309Z,99.89
2023-03-04T01:27:41.884Z,100.00
2023-03-04T01:30:10.382Z,100.00
2023-03-04T01:32:38.357Z,100.00
2023-03-04T01:35:06.368Z,99.75
2023-03-04T01:37:34.958Z,99.45
2023-03-04T01:40:02.447Z,99.04
2023-03-04T01:42:33.723Z,98.72
2023-03-04T01:45:02.410Z,99.57
2023-03-04T01:47:33.258Z,100.00
2023-03-04T01:50:07.287Z,100.00
2023-03-04T01:52:34.715Z,100.00
2023-03-04T01:55:03.100Z,100.00
2023-03-04T01:57:36.450Z,100.00
2023-03-04T02:00:22.494Z,100.00
2023-03-04T02:02:53.862Z,100.00
2023-03-04T02:05:22.499Z,100.00
2023-03-04T02:07:51.556Z,99.01
2023-03-04T02:10:24.794Z,99.96
2023-03-04T02:12:53.756Z,100.00
2023-03-04T02:15:22.178Z,99.84
2023-03-04T02:17:50.699Z,99.82
2023-03-04T02:20:33.067Z,98.92
2023-03-04T02:23:19.026Z,98.65
2023-03-04T02:26:22.763Z,99.62
2023-03-04T02:28:52.160Z,99.60
2023-03-04T02:31:32.224Z,99.44
2023-03-04T02:34:03.335Z,98.32
2023-03-04T02:36:34.190Z,98.97
2023-03-04T02:39:31.583Z,99.64
2023-03-04T02:42:00.410Z,99.89
2023-03-04T02:44:38.345Z,99.94
2023-03-04T02:47:09.364Z,99.59
2023-03-04T02:49:39.488Z,100.00
2023-03-04T02:52:20.744Z,100.00
2023-03-04T02:54:48.972Z,100.00
2023-03-04T02:57:16.440Z,100.00
2023-03-04T02:59:44.712Z,100.00
2023-03-04T03:02:13.387Z,100.00
2023-03-04T03:04:42.701Z,100.00
2023-03-04T03:07:10.189Z,100.00
2023-03-04T03:09:41.322Z,100.00
2023-03-04T03:12:08.989Z,100.00
2023-03-04T03:14:36.454Z,100.00
2023-03-04T03:17:03.903Z,100.00
2023-03-04T03:19:31.756Z,100.00
2023-03-04T03:21:59.611Z,100.00
2023-03-04T03:24:26.984Z,100.00
2023-03-04T03:26:54.436Z,100.00
2023-03-04T03:29:22.111Z,100.00
2023-03-04T03:31:49.703Z,100.00
2023-03-04T03:34:19.245Z,100.00
2023-03-04T03:36:47.091Z,100.00
2023-03-04T03:39:20.806Z,100.00
2023-03-04T03:41:48.321Z,100.00
2023-03-04T03:44:15.855Z,100.00
2023-03-04T03:46:47.037Z,100.00
2023-03-04T03:49:14.541Z,100.00
2023-03-04T03:51:41.933Z,100.00
2023-03-04T03:54:09.888Z,100.00
2023-03-04T03:56:38.768Z,100.00
2023-03-04T03:59:06.338Z,100.00
2023-03-04T04:01:34.012Z,100.00
2023-03-04T04:04:01.612Z,100.00
2023-03-04T04:06:29.117Z,100.00
2023-03-04T04:08:59.759Z,100.00
2023-03-04T04:11:28.152Z,100.00
2023-03-04T04:13:55.545Z,100.00
2023-03-04T04:16:23.952Z,100.00
2023-03-04T04:18:51.684Z,100.00
2023-03-04T04:21:23.351Z,100.00
2023-03-04T04:23:50.885Z,100.00
2023-03-04T04:26:18.349Z,100.00
2023-03-04T04:28:45.892Z,100.00
2023-03-04T04:31:13.382Z,100.00
2023-03-04T04:33:43.092Z,100.00
2023-03-04T04:36:15.906Z,100.00
2023-03-04T04:38:43.777Z,100.00
2023-03-04T04:41:22.936Z,100.00
2023-03-04T04:43:50.709Z,100.00
2023-03-04T04:46:18.505Z,100.00
2023-03-04T04:48:46.337Z,100.00
2023-03-04T04:51:14.109Z,100.00
2023-03-04T04:53:41.973Z,100.00
2023-03-04T04:56:18.091Z,100.00
2023-03-04T04:58:47.258Z,100.00
2023-03-04T05:01:16.031Z,100.00
2023-03-04T05:03:44.805Z,100.00
2023-03-04T05:06:13.458Z,100.00
2023-03-04T05:08:41.718Z,100.00
2023-03-04T05:11:09.586Z,100.00
2023-03-04T05:13:40.378Z,100.00
2023-03-04T05:16:08.460Z,100.00
2023-03-04T05:18:36.060Z,100.00
2023-03-04T05:21:04.483Z,100.00
2023-03-04T05:23:35.322Z,99.66
2023-03-04T05:26:04.617Z,99.54
2023-03-04T05:28:34.216Z,98.51
2023-03-04T05:31:01.964Z,98.22
2023-03-04T05:33:29.711Z,97.74
2023-03-04T05:35:57.230Z,97.41
2023-03-04T05:38:25.852Z,96.89
2023-03-04T05:41:02.248Z,97.00
2023-03-04T05:43:32.055Z,97.59
2023-03-04T05:45:59.629Z,97.68
2023-03-04T05:48:29.074Z,96.06
2023-03-04T05:50:58.623Z,96.52
2023-03-04T05:53:26.983Z,95.78
2023-03-04T05:55:55.068Z,96.73
2023-03-04T05:58:23.262Z,95.51
2023-03-04T06:00:50.717Z,95.81
2023-03-04T06:03:20.603Z,95.65
2023-03-04T06:05:48.550Z,95.81
2023-03-04T06:08:16.111Z,96.20
2023-03-04T06:10:44.377Z,96.12
2023-03-04T06:13:13.159Z,96.91
2023-03-04T06:15:42.197Z,96.44
2023-03-04T06:18:09.870Z,95.75
2023-03-04T06:20:38.821Z,95.97
2023-03-04T06:23:06.842Z,96.09
2023-03-04T06:25:34.224Z,96.21
2023-03-04T06:28:01.716Z,95.03
2023-03-04T06:30:29.490Z,94.92
2023-03-04T06:33:01.096Z,94.87
2023-03-04T06:35:28.645Z,94.94
2023-03-04T06:37:56.016Z,95.38
2023-03-04T06:40:24.230Z,94.44
2023-03-04T06:42:51.713Z,93.54
2023-03-04T06:45:19.642Z,93.00
2023-03-04T06:47:47.101Z,92.73
2023-03-04T06:50:15.003Z,92.57
2023-03-04T06:52:42.826Z,91.34
2023-03-04T06:55:15.275Z,90.13
2023-03-04T06:57:45.184Z,90.75
2023-03-04T07:00:14.598Z,91.31
2023-03-04T07:02:42.177Z,92.02
2023-03-04T07:05:11.074Z,91.48
2023-03-04T07:07:38.692Z,90.57
2023-03-04T07:10:06.723Z,89.75
2023-03-04T07:12:34.257Z,87.98
2023-03-04T07:15:06.436Z,87.04
2023-03-04T07:17:35.538Z,86.09
2023-03-04T07:20:04.205Z,87.09
2023-03-04T07:22:33.709Z,85.16
2023-03-04T07:25:01.294Z,83.77
2023-03-04T07:27:28.855Z,83.39
2023-03-04T07:29:56.460Z,83.58
2023-03-04T07:32:24.006Z,83.97
2023-03-04T07:34:51.572Z,82.88
2023-03-04T07:37:19.109Z,82.67
2023-03-04T07:39:46.660Z,84.35
2023-03-04T07:42:14.226Z,83.22
2023-03-04T07:44:41.716Z,83.58
2023-03-04T07:47:09.346Z,82.48
2023-03-04T07:49:37.049Z,81.87
2023-03-04T07:52:05.636Z,81.31
2023-03-04T07:54:34.780Z,82.81
2023-03-04T07:57:03.726Z,77.17
2023-03-04T07:59:33.086Z,77.55
2023-03-04T08:02:00.620Z,78.22
2023-03-04T08:04:28.050Z,78.37
2023-03-04T08:06:55.491Z,78.15
2023-03-04T08:09:23.050Z,73.99
2023-03-04T08:11:51.371Z,74.00
2023-03-04T08:14:18.991Z,73.81
2023-03-04T08:16:48.950Z,71.53
2023-03-04T08:19:17.808Z,69.61
2023-03-04T08:21:45.530Z,66.00
2023-03-04T08:24:14.375Z,66.40
2023-03-04T08:26:46.206Z,67.18
2023-03-04T08:29:17.946Z,67.70
2023-03-04T08:31:48.792Z,67.69
2023-03-04T08:34:17.426Z,66.58
2023-03-04T08:36:45.721Z,67.11
2023-03-04T08:39:15.713Z,64.82
2023-03-04T08:41:43.807Z,65.99
2023-03-04T08:44:11.498Z,63.14
2023-03-04T08:46:41.454Z,62.36
2023-03-04T08:49:12.715Z,61.07
2023-03-04T08:51:40.800Z,62.41
2023-03-04T08:54:08.233Z,63.65
2023-03-04T08:56:36.952Z,65.49
2023-03-04T08:59:04.693Z,63.28
2023-03-04T09:01:33.235Z,57.74
2023-03-04T09:04:00.810Z,58.08
2023-03-04T09:06:28.202Z,59.02
2023-03-04T09:08:56.147Z,56.06
2023-03-04T09:11:23.815Z,57.21
2023-03-04T09:13:54.174Z,57.74
2023-03-04T09:16:23.507Z,58.76
2023-03-04T09:18:51.181Z,59.14
2023-03-04T09:21:19.241Z,58.86
2023-03-04T09:23:46.744Z,58.79
2023-03-04T09:26:21.588Z,56.97
2023-03-04T09:28:53.741Z,56.74
2023-03-04T09:31:22.037Z,56.38
2023-03-04T09:33:52.123Z,53.67
2023-03-04T09:36:19.680Z,54.02
2023-03-04T09:38:51.483Z,54.80
2023-03-04T09:41:24.391Z,56.22
2023-03-04T09:43:54.257Z,59.91
2023-03-04T09:46:37.634Z,57.88
2023-03-04T09:49:07.428Z,58.88
2023-03-04T09:51:54.751Z,58.69
2023-03-04T09:54:48.290Z,59.36
2023-03-04T09:57:45.623Z,59.76
2023-03-04T10:00:25.444Z,61.54
2023-03-04T10:03:17.130Z,62.40
2023-03-04T10:05:53.637Z,60.30
2023-03-04T10:08:27.622Z,59.02
2023-03-04T10:10:59.025Z,60.29
2023-03-04T10:13:45.894Z,58.84
2023-03-04T10:16:21.082Z,60.65
2023-03-04T10:19:21.496Z,60.41
2023-03-04T10:21:50.995Z,60.50
2023-03-04T10:24:22.744Z,59.13
2023-03-04T10:26:56.207Z,60.42
2023-03-04T10:29:24.733Z,61.91
2023-03-04T10:31:56.337Z,63.29
2023-03-04T10:34:24.438Z,64.35
2023-03-04T10:37:03.802Z,65.16
2023-03-04T10:39:43.236Z,64.23
2023-03-04T10:42:16.839Z,64.07
2023-03-04T10:45:01.067Z,63.70
2023-03-04T10:47:31.466Z,62.16
2023-03-04T10:50:01.877Z,62.25
2023-03-04T10:52:35.704Z,62.77
2023-03-04T10:55:14.675Z,63.49
2023-03-04T10:57:46.298Z,64.15
2023-03-04T11:00:28.648Z,66.18
2023-03-04T11:03:29.812Z,65.77
2023-03-04T11:06:15.659Z,64.97
2023-03-04T11:08:45.195Z,64.57
2023-03-04T11:11:44.886Z,63.41
2023-03-04T11:14:36.792Z,60.29
2023-03-04T11:17:17.400Z,60.58
2023-03-04T11:19:51.445Z,57.11
2023-03-04T11:22:23.409Z,59.46
2023-03-04T11:25:02.729Z,58.16
2023-03-04T11:27:40.417Z,56.71
2023-03-04T11:30:27.095Z,55.17
2023-03-04T11:33:02.421Z,55.94
2023-03-04T11:35:43.123Z,55.92
2023-03-04T11:38:22.215Z,57.56
2023-03-04T11:40:55.108Z,57.29
2023-03-04T11:43:32.771Z,56.82
2023-03-04T11:46:15.100Z,57.42
2023-03-04T11:49:07.813Z,56.42
2023-03-04T11:51:47.699Z,57.31
2023-03-04T11:54:44.113Z,56.87
2023-03-04T11:57:39.154Z,56.85
2023-03-04T12:00:26.085Z,56.81
2023-03-04T12:03:13.094Z,57.85
2023-03-04T12:06:12.478Z,56.61
2023-03-04T12:08:45.819Z,56.02
2023-03-04T12:11:46.693Z,56.40
2023-03-04T12:14:22.980Z,56.16
2023-03-04T12:17:01.821Z,56.38
2023-03-04T12:19:41.157Z,56.45
2023-03-04T12:22:23.464Z,56.26
2023-03-04T12:25:10.532Z,56.18
2023-03-04T12:28:14.617Z,56.62
2023-03-04T12:30:56.882Z,55.22
2023-03-04T12:34:03.090Z,54.34
2023-03-04T12:36:56.630Z,55.17
2023-03-04T12:39:38.053Z,55.75
2023-03-04T12:42:09.720Z,56.33
2023-03-04T12:45:14.153Z,56.28
2023-03-04T12:48:09.491Z,56.41
2023-03-04T12:50:43.204Z,55.54
2023-03-04T12:53:21.731Z,54.28
2023-03-04T12:55:50.101Z,53.46
2023-03-04T12:58:31.011Z,54.06
2023-03-04T13:01:29.103Z,54.13
2023-03-04T13:04:16.646Z,55.31
2023-03-04T13:07:07.138Z,54.62
2023-03-04T13:09:47.825Z,54.15
2023-03-04T13:12:22.509Z,53.04
2023-03-04T13:15:08.760Z,51.84
2023-03-04T13:17:52.043Z,51.49
2023-03-04T13:20:33.107Z,49.88
2023-03-04T13:23:08.964Z,49.03
2023-03-04T13:25:45.627Z,49.06
2023-03-04T13:28:22.239Z,49.41
2023-03-04T13:30:53.355Z,48.33
2023-03-04T13:33:21.092Z,48.90
2023-03-04T13:35:48.650Z,48.11
2023-03-04T13:38:56.896Z,47.93
2023-03-04T13:41:31.317Z,47.67
2023-03-04T13:44:06.219Z,48.23
2023-03-04T13:46:42.996Z,47.93
2023-03-04T13:49:24.700Z,48.33
2023-03-04T13:51:52.909Z,48.90
2023-03-04T13:54:26.810Z,49.86
2023-03-04T13:57:00.284Z,49.52
2023-03-04T13:59:43.055Z,50.36
2023-03-04T14:02:12.659Z,49.81
2023-03-04T14:04:46.170Z,49.82
2023-03-04T14:07:24.430Z,49.87
2023-03-04T14:10:05.964Z,49.42
2023-03-04T14:12:41.060Z,49.07
2023-03-04T14:15:14.197Z,49.10
2023-03-04T14:17:51.665Z,49.04
2023-03-04T14:20:27.076Z,48.45
2023-03-04T14:22:58.293Z,48.54
2023-03-04T14:25:32.020Z,49.26
2023-03-04T14:28:20.842Z,48.50
2023-03-04T14:30:54.082Z,48.55
2023-03-04T14:33:25.138Z,49.82
2023-03-04T14:36:01.194Z,49.52
2023-03-04T14:38:34.032Z,50.12
2023-03-04T14:41:15.518Z,50.54
2023-03-04T14:44:04.249Z,51.09
2023-03-04T14:46:56.908Z,51.94
2023-03-04T14:49:35.648Z,52.40
2023-03-04T14:52:03.511Z,53.22
2023-03-04T14:55:02.179Z,52.65
2023-03-04T14:57:34.210Z,53.44
2023-03-04T15:00:17.423Z,53.56
2023-03-04T15:02:49.943Z,53.98
2023-03-04T15:05:29.564Z,55.31
2023-03-04T15:08:17.532Z,55.51
2023-03-04T15:10:58.507Z,55.13
2023-03-04T15:13:51.021Z,55.69
2023-03-04T15:16:55.106Z,56.00
2023-03-04T15:19:30.201Z,55.70
2023-03-04T15:22:06.263Z,56.39
2023-03-04T15:24:34.962Z,55.59
2023-03-04T15:27:08.167Z,56.38
2023-03-04T15:29:37.497Z,56.97
2023-03-04T15:32:12.019Z,56.71
2023-03-04T15:34:40.659Z,56.70
2023-03-04T15:37:19.970Z,56.89
2023-03-04T15:39:47.801Z,57.20
2023-03-04T15:42:15.281Z,57.83
2023-03-04T15:44:42.749Z,58.51
2023-03-04T15:47:14.022Z,59.42
2023-03-04T15:49:49.735Z,59.44
2023-03-04T15:52:20.964Z,60.14
2023-03-04T15:54:49.536Z,60.81
2023-03-04T15:57:27.831Z,61.70
2023-03-04T15:59:55.301Z,61.94
2023-03-04T16:02:29.710Z,62.92
2023-03-04T16:04:57.371Z,62.65
2023-03-04T16:07:30.847Z,63.47
2023-03-04T16:10:02.366Z,64.35
2023-03-04T16:12:30.233Z,64.44
2023-03-04T16:14:57.956Z,63.91
2023-03-04T16:17:26.158Z,64.34
2023-03-04T16:19:53.458Z,64.66
2023-03-04T16:22:25.741Z,65.42
2023-03-04T16:24:54.855Z,65.26
2023-03-04T16:27:27.582Z,65.92
2023-03-04T16:29:55.055Z,65.89
2023-03-04T16:32:22.747Z,66.44
2023-03-04T16:34:50.645Z,66.15
2023-03-04T16:37:20.365Z,66.20
2023-03-04T16:39:49.299Z,66.19
2023-03-04T16:42:19.248Z,66.24
2023-03-04T16:44:46.774Z,67.15
2023-03-04T16:47:14.262Z,67.37
2023-03-04T16:49:41.865Z,67.44
2023-03-04T16:52:20.426Z,68.26
2023-03-04T16:54:48.332Z,68.83
2023-03-04T16:57:15.856Z,69.66
2023-03-04T16:59:45.947Z,70.72
2023-03-04T17:02:18.804Z,70.74
2023-03-04T17:04:49.653Z,70.30
2023-03-04T17:07:17.461Z,71.04
2023-03-04T17:09:44.833Z,70.18
2023-03-04T17:12:12.925Z,70.14
2023-03-04T17:14:40.517Z,70.22
2023-03-04T17:17:08.276Z,70.98
2023-03-04T17:19:35.823Z,71.14
2023-03-04T17:22:05.357Z,72.19
2023-03-04T17:24:32.902Z,73.01
2023-03-04T17:27:02.308Z,73.28
2023-03-04T17:29:29.769Z,73.97
2023-03-04T17:31:57.537Z,74.18
2023-03-04T17:34:25.962Z,75.41
2023-03-04T17:36:53.362Z,76.16
2023-03-04T17:39:20.807Z,76.17
2023-03-04T17:41:51.220Z,76.28
2023-03-04T17:44:24.681Z,76.29
2023-03-04T17:46:52.106Z,77.19
2023-03-04T17:49:19.637Z,77.42
2023-03-04T17:51:47.016Z,78.60
2023-03-04T17:54:14.618Z,78.64
2023-03-04T17:56:43.548Z,78.65
2023-03-04T17:59:14.814Z,79.51
2023-03-04T18:01:45.291Z,80.16
2023-03-04T18:04:14.644Z,80.86
2023-03-04T18:06:42.659Z,81.41
2023-03-04T18:09:13.162Z,81.35
2023-03-04T18:11:42.376Z,82.58
2023-03-04T18:14:12.232Z,83.04
2023-03-04T18:16:40.212Z,83.63
2023-03-04T18:19:09.496Z,84.61
2023-03-04T18:21:37.233Z,85.68
2023-03-04T18:24:05.158Z,86.35
2023-03-04T18:26:33.173Z,87.31
2023-03-04T18:29:01.558Z,88.50
2023-03-04T18:31:32.353Z,88.33
2023-03-04T18:34:02.505Z,88.32
2023-03-04T18:36:30.934Z,88.75
2023-03-04T18:38:59.585Z,89.86
2023-03-04T18:41:27.874Z,88.98
2023-03-04T18:43:55.501Z,90.40
2023-03-04T18:46:30.902Z,90.74
2023-03-04T18:49:05.150Z,91.34
2023-03-04T18:51:33.364Z,91.50
2023-03-04T18:54:01.485Z,91.33
2023-03-04T18:56:37.817Z,91.86
2023-03-04T18:59:15.050Z,92.31
2023-03-04T19:01:42.753Z,92.47
2023-03-04T19:04:10.971Z,93.38
2023-03-04T19:06:38.949Z,93.98
2023-03-04T19:09:06.831Z,94.53
2023-03-04T19:11:34.331Z,93.70
2023-03-04T19:14:07.775Z,93.76
2023-03-04T19:16:35.947Z,94.08
2023-03-04T19:19:03.435Z,94.96
2023-03-04T19:21:38.393Z,94.22
2023-03-04T19:24:06.592Z,94.12
2023-03-04T19:26:35.271Z,94.33
2023-03-04T19:29:02.899Z,94.04
2023-03-04T19:31:30.322Z,94.32
2023-03-04T19:33:59.127Z,95.28
2023-03-04T19:36:27.072Z,95.32
2023-03-04T19:38:55.673Z,95.55
2023-03-04T19:41:23.853Z,95.91
2023-03-04T19:43:51.903Z,96.75
2023-03-04T19:46:20.620Z,96.42
2023-03-04T19:48:51.438Z,97.12
2023-03-04T19:51:29.319Z,97.48
2023-03-04T19:53:56.847Z,97.48
2023-03-04T19:56:24.554Z,98.17
2023-03-04T19:58:56.514Z,99.13
2023-03-04T20:01:29.657Z,99.34
2023-03-04T20:04:03.198Z,100.00
2023-03-04T20:06:31.285Z,100.00
2023-03-04T20:09:00.950Z,100.00
2023-03-04T20:11:29.546Z,100.00
2023-03-04T20:13:58.747Z,100.00
2023-03-04T20:16:27.994Z,100.00
2023-03-04T20:18:58.170Z,100.00
2023-03-04T20:21:28.443Z,100.00
2023-03-04T20:23:55.942Z,100.00
2023-03-04T20:26:23.767Z,100.00
2023-03-04T20:28:51.265Z,100.00
2023-03-04T20:31:27.993Z,100.00
2023-03-04T20:33:56.612Z,100.00
2023-03-04T20:36:27.595Z,100.00
2023-03-04T20:39:02.093Z,100.00
2023-03-04T20:41:33.182Z,100.00
2023-03-04T20:44:02.891Z,100.00
2023-03-04T20:46:32.457Z,100.00
2023-03-04T20:49:02.772Z,100.00
2023-03-04T20:51:32.478Z,100.00
2023-03-04T20:54:00.507Z,100.00
2023-03-04T20:56:32.630Z,100.00
2023-03-04T20:59:03.791Z,100.00
2023-03-04T21:01:31.906Z,100.00
2023-03-04T21:04:00.633Z,100.00
2023-03-04T21:06:29.382Z,100.00
2023-03-04T21:09:05.558Z,100.00
2023-03-04T21:11:40.916Z,100.00
2023-03-04T21:14:12.566Z,100.00
2023-03-04T21:16:40.854Z,100.00
2023-03-04T21:19:24.248Z,100.00
2023-03-04T21:21:55.460Z,100.00
2023-03-04T21:24:26.347Z,100.00
2023-03-04T21:26:53.835Z,100.00
2023-03-04T21:29:24.425Z,100.00
2023-03-04T21:32:24.398Z,100.00
2023-03-04T21:34:54.499Z,100.00
2023-03-04T21:37:24.082Z,100.00
2023-03-04T21:39:55.093Z,100.00
2023-03-04T21:42:22.752Z,100.00
2023-03-04T21:44:51.841Z,100.00
2023-03-04T21:47:21.525Z,100.00
2023-03-04T21:49:50.324Z,100.00
2023-03-04T21:52:19.452Z,100.00
2023-03-04T21:54:47.813Z,100.00
2023-03-04T21:57:19.592Z,100.00
2023-03-04T21:59:47.023Z,100.00
2023-03-04T22:02:20.314Z,100.00
2023-03-04T22:04:48.469Z,100.00
2023-03-04T22:07:16.742Z,100.00
2023-03-04T22:09:47.584Z,100.00
2023-03-04T22:12:17.508Z,100.00
2023-03-04T22:14:45.881Z,100.00
2023-03-04T22:17:13.392Z,100.00
2023-03-04T22:19:41.507Z,100.00
2023-03-04T22:22:12.224Z,100.00
2023-03-04T22:24:39.948Z,100.00
2023-03-04T22:27:07.854Z,100.00
2023-03-04T22:29:35.327Z,100.00
2023-03-04T22:32:02.957Z,100.00
2023-03-04T22:34:30.587Z,100.00
2023-03-04T22:36:58.179Z,100.00
2023-03-04T22:39:25.633Z,100.00
2023-03-04T22:41:53.050Z,100.00
2023-03-04T22:44:20.738Z,100.00
2023-03-04T22:46:48.231Z,100.00
2023-03-04T22:49:15.856Z,100.00
2023-03-04T22:51:45.691Z,100.00
2023-03-04T22:54:18.217Z,100.00
2023-03-04T22:56:45.985Z,100.00
2023-03-04T22:59:14.015Z,100.00
2023-03-04T23:01:42.826Z,100.00
2023-03-04T23:04:11.314Z,100.00
2023-03-04T23:06:38.798Z,100.00
2023-03-04T23:09:08.437Z,100.00
2023-03-04T23:11:39.521Z,100.00
2023-03-04T23:14:08.944Z,100.00
2023-03-04T23:16:42.481Z,100.00
2023-03-04T23:19:16.818Z,100.00
2023-03-04T23:21:45.107Z,100.00
2023-03-04T23:24:13.493Z,100.00
2023-03-04T23:26:42.863Z,100.00
2023-03-04T23:29:13.922Z,100.00
2023-03-04T23:31:42.740Z,100.00
2023-03-04T23:34:11.427Z,100.00
2023-03-04T23:36:40.959Z,100.00
2023-03-04T23:39:08.657Z,100.00
2023-03-04T23:41:36.743Z,100.00
2023-03-04T23:44:04.954Z,100.00
2023-03-04T23:46:37.180Z,100.00
2023-03-04T23:49:09.404Z,100.00
2023-03-04T23:51:37.022Z,100.00
2023-03-04T23:54:04.693Z,100.00
2023-03-04T23:56:32.237Z,100.00
2023-03-04T23:59:00.575Z,100.00
